Ruby Indah — 9VND — position and weather

sailwx.info

Track history (hours):
 
Tides and Currents Weather Stations Pressure Air Temp Water Temp Dewpoint Dewpoint Depression Visibility Wind Speed Wind Dir Waves Ship Positions

Ruby Indah

Last reported at 2018-Apr-08 11:48 UTC. Time now 2018-Apr-19 10:10 UTC.
Position N 23°51' E 123°06'.
Warning: this ship's position is 10 days out of date.

Length 229 m; draft 13 m.

Type: Cargo ship. MMSI: 564748000.

Date/timePositionNaut miles runAvg speedWind from/ knotsBaromVisibWave heightAir tempDewpointWater temp
2018-Apr-08 11:48N 23°51' E 123°06'910.3
2018-Apr-08 10:57N 23°58' E 123°10'510.3
2018-Apr-08 10:29N 24°03' E 123°13'510.4
2018-Apr-08 10:00N 24°07' E 123°15'510.4
2018-Apr-08 09:30N 24°12' E 123°18'510.4
2018-Apr-08 09:00N 24°16' E 123°20'510.0
2018-Apr-08 08:31N 24°21' E 123°23'510.2
2018-Apr-08 08:00N 24°25' E 123°26'510.3
2018-Apr-08 07:30N 24°30' E 123°28'510.2
2018-Apr-08 07:01N 24°34' E 123°31'510.3
2018-Apr-08 06:29N 24°39' E 123°34'  
2018-Apr-01 19:52N 41°25' E 140°28'3 9.0
2018-Apr-01 19:31N 41°27' E 140°31'4 8.8
2018-Apr-01 19:00N 41°29' E 140°36'4 8.6
2018-Apr-01 18:30N 41°32' E 140°41'4 8.9
2018-Apr-01 18:00N 41°35' E 140°45'4 8.6
2018-Apr-01 17:30N 41°37' E 140°50'4 7.5
2018-Apr-01 17:00N 41°38' E 140°55'4 7.7
2018-Apr-01 16:30N 41°39' E 141°00'5 8.9
2018-Apr-01 16:00N 41°39' E 141°06'510.5
2018-Apr-01 15:30N 41°39' E 141°13'  
Track history (hours):
 
Tides and Currents Weather Stations Pressure Air Temp Water Temp Dewpoint Dewpoint Depression Visibility Wind Speed Wind Dir Waves Ship Positions

Ruby Indah

Last reported at 2018-Apr-08 11:48 UTC. Time now 2018-Apr-19 10:10 UTC.
Position N 23°51' E 123°06'.
Warning: this ship's position is 10 days out of date.

Length 229 m; draft 13 m.

Type: Cargo ship. MMSI: 564748000.

Date/timePositionNaut miles runAvg speedWind from/ knotsBaromVisibWave heightAir tempDewpointWater temp
2018-Apr-08 11:48N 23°51' E 123°06'910.3
2018-Apr-08 10:57N 23°58' E 123°10'510.3
2018-Apr-08 10:29N 24°03' E 123°13'510.4
2018-Apr-08 10:00N 24°07' E 123°15'510.4
2018-Apr-08 09:30N 24°12' E 123°18'510.4
2018-Apr-08 09:00N 24°16' E 123°20'510.0
2018-Apr-08 08:31N 24°21' E 123°23'510.2
2018-Apr-08 08:00N 24°25' E 123°26'510.3
2018-Apr-08 07:30N 24°30' E 123°28'510.2
2018-Apr-08 07:01N 24°34' E 123°31'510.3
2018-Apr-08 06:29N 24°39' E 123°34'  
2018-Apr-01 19:52N 41°25' E 140°28'3 9.0
2018-Apr-01 19:31N 41°27' E 140°31'4 8.8
2018-Apr-01 19:00N 41°29' E 140°36'4 8.6
2018-Apr-01 18:30N 41°32' E 140°41'4 8.9
2018-Apr-01 18:00N 41°35' E 140°45'4 8.6
2018-Apr-01 17:30N 41°37' E 140°50'4 7.5
2018-Apr-01 17:00N 41°38' E 140°55'4 7.7
2018-Apr-01 16:30N 41°39' E 141°00'5 8.9
2018-Apr-01 16:00N 41°39' E 141°06'510.5
2018-Apr-01 15:30N 41°39' E 141°13'  

Dump ship's entire track history